createdAt,value
2018-10-11T00:04:28.420Z,27.82
2018-10-11T00:09:09.417Z,27.77
2018-10-11T00:13:49.238Z,31.62
2018-10-11T00:18:28.980Z,32.15
2018-10-11T00:23:08.938Z,31.62
2018-10-11T00:27:48.839Z,30.57
2018-10-11T00:32:28.684Z,30.65
2018-10-11T00:37:08.440Z,29.65
2018-10-11T00:41:48.174Z,33.77
2018-10-11T00:46:27.931Z,32.60
2018-10-11T00:51:07.771Z,33.50
2018-10-11T00:55:47.541Z,35.68
2018-10-11T01:00:27.381Z,32.53
2018-10-11T01:05:07.592Z,29.75
2018-10-11T01:09:47.300Z,34.23
2018-10-11T01:14:26.972Z,36.08
2018-10-11T01:19:06.796Z,34.23
2018-10-11T01:23:46.586Z,32.30
2018-10-11T01:28:26.410Z,34.67
2018-10-11T01:33:06.361Z,32.90
2018-10-11T01:37:46.290Z,36.35
2018-10-11T01:42:26.136Z,33.50
2018-10-11T01:47:06.016Z,30.93
2018-10-11T01:51:45.840Z,32.67
2018-10-11T01:56:25.636Z,30.93
2018-10-11T02:01:05.459Z,34.27
2018-10-11T02:05:45.331Z,31.00
2018-10-11T02:10:25.955Z,36.33
2018-10-11T02:15:06.197Z,32.50
2018-10-11T02:19:46.127Z,35.57
2018-10-11T02:24:26.003Z,34.27
2018-10-11T02:29:06.472Z,34.80
2018-10-11T02:33:46.348Z,34.87
2018-10-11T02:38:26.559Z,29.47
2018-10-11T02:43:06.593Z,32.00
2018-10-11T02:47:46.544Z,33.07
2018-10-11T02:52:26.476Z,34.70
2018-10-11T02:57:06.296Z,114.07
2018-10-11T03:01:46.256Z,50.40
2018-10-11T03:06:26.160Z,31.43
2018-10-11T03:11:09.540Z,41.13
2018-10-11T03:15:49.341Z,43.93
2018-10-11T03:20:29.128Z,53.10
2018-10-11T03:25:08.547Z,83.13
2018-10-11T03:29:48.420Z,47.90
2018-10-11T03:34:29.141Z,47.10
2018-10-11T03:39:08.976Z,45.47
2018-10-11T03:43:48.879Z,36.23
2018-10-11T03:48:28.677Z,39.60
2018-10-11T03:53:08.403Z,48.13
2018-10-11T03:57:48.364Z,36.20
2018-10-11T04:02:28.280Z,92.90
2018-10-11T04:07:07.976Z,95.80
2018-10-11T04:11:47.811Z,36.90
2018-10-11T04:16:27.559Z,75.07
2018-10-11T04:21:07.461Z,55.43
2018-10-11T04:25:49.435Z,50.27
2018-10-11T04:30:30.134Z,90.80
2018-10-11T04:35:11.769Z,45.03
2018-10-11T04:39:52.465Z,41.73
2018-10-11T04:44:35.948Z,63.77
2018-10-11T04:49:16.629Z,41.90
2018-10-11T04:53:57.097Z,38.50
2018-10-11T04:58:36.820Z,60.20
2018-10-11T05:03:16.684Z,37.47
2018-10-11T05:07:58.706Z,37.97
2018-10-11T05:12:46.747Z,29.67
2018-10-11T05:17:27.404Z,32.37
2018-10-11T05:26:56.085Z,67.33
2018-10-11T05:31:36.132Z,39.03
2018-10-11T05:36:15.924Z,29.67
2018-10-11T05:40:56.249Z,39.20
2018-10-11T05:45:37.361Z,36.20
2018-10-11T05:50:19.979Z,32.67
2018-10-11T05:55:04.085Z,38.20
2018-10-11T05:59:44.993Z,34.73
2018-10-11T06:04:25.106Z,38.47
2018-10-11T06:09:06.298Z,48.93
2018-10-11T06:13:47.753Z,36.80
2018-10-11T06:18:27.685Z,40.13
2018-10-11T06:23:07.898Z,51.70
2018-10-11T06:27:47.857Z,39.57
2018-10-11T06:32:28.110Z,34.40
2018-10-11T06:37:08.118Z,24.80
2018-10-11T06:41:48.135Z,50.63
2018-10-11T06:46:28.081Z,24.60
2018-10-11T06:51:08.443Z,25.15
2018-10-11T06:55:48.231Z,24.23
2018-10-11T07:00:28.240Z,24.32
2018-10-11T07:05:08.116Z,32.38
2018-10-11T07:09:47.934Z,28.35
2018-10-11T07:14:27.980Z,26.42
2018-10-11T07:19:07.884Z,27.37
2018-10-11T07:23:47.622Z,26.25
2018-10-11T07:28:27.563Z,30.40
2018-10-11T07:33:09.988Z,29.42
2018-10-11T07:37:50.969Z,27.02
2018-10-11T07:42:31.871Z,28.80
2018-10-11T07:47:11.843Z,38.42
2018-10-11T07:51:51.981Z,35.30
2018-10-11T07:56:33.031Z,27.48
2018-10-11T08:01:13.006Z,27.67
2018-10-11T08:05:54.456Z,27.93
2018-10-11T08:10:34.590Z,34.27
2018-10-11T08:15:14.970Z,31.05
2018-10-11T08:19:55.037Z,26.97
2018-10-11T08:24:34.898Z,38.60
2018-10-11T08:29:14.928Z,27.52
2018-10-11T08:33:54.906Z,28.65
2018-10-11T08:38:34.918Z,28.00
2018-10-11T08:43:14.924Z,27.00
2018-10-11T08:47:54.770Z,32.95
2018-10-11T08:52:38.770Z,48.23
2018-10-11T08:57:19.664Z,47.60
2018-10-11T09:02:01.728Z,40.35
2018-10-11T09:06:41.548Z,32.55
2018-10-11T09:11:21.460Z,29.65
2018-10-11T09:16:01.456Z,26.20
2018-10-11T09:20:41.368Z,25.75
2018-10-11T09:25:21.201Z,21.57
2018-10-11T09:30:01.191Z,21.82
2018-10-11T09:34:40.948Z,22.22
2018-10-11T09:39:20.680Z,20.30
2018-10-11T09:44:02.220Z,22.00
2018-10-11T09:48:42.058Z,20.37
2018-10-11T09:53:21.653Z,19.02
2018-10-11T09:58:01.408Z,19.30
2018-10-11T10:02:42.191Z,17.80
2018-10-11T10:07:24.211Z,17.80
2018-10-11T10:12:04.224Z,20.02
2018-10-11T10:16:44.012Z,15.50
2018-10-11T10:21:24.430Z,15.83
2018-10-11T10:26:07.911Z,14.13
2018-10-11T10:30:52.548Z,12.45
2018-10-11T10:35:32.355Z,12.90
2018-10-11T10:40:13.401Z,13.35
2018-10-11T10:44:55.553Z,12.70
2018-10-11T10:49:35.682Z,12.70
2018-10-11T10:54:21.100Z,20.68
2018-10-11T10:59:07.042Z,15.58
2018-10-11T11:03:47.247Z,17.45
2018-10-11T11:08:30.077Z,16.10
2018-10-11T11:13:09.924Z,14.63
2018-10-11T11:17:49.790Z,14.63
2018-10-11T11:22:31.579Z,12.93
2018-10-11T11:27:11.568Z,14.20
2018-10-11T11:31:52.330Z,15.72
2018-10-11T11:36:32.121Z,17.98
2018-10-11T11:41:15.825Z,19.25
2018-10-11T11:45:56.029Z,16.30
2018-10-11T11:50:39.365Z,13.98
2018-10-11T11:55:19.336Z,10.03
2018-10-11T11:59:59.220Z,9.03
2018-10-11T12:04:39.150Z,9.03
2018-10-11T12:09:19.134Z,9.20
2018-10-11T12:13:59.136Z,9.65
2018-10-11T12:18:38.896Z,10.25
2018-10-11T12:23:19.804Z,10.72
2018-10-11T12:28:00.264Z,8.70
2018-10-11T12:32:40.119Z,10.90
2018-10-11T12:37:27.135Z,7.25
2018-10-11T12:42:07.036Z,9.33
2018-10-11T12:46:46.981Z,6.80
2018-10-11T12:51:26.938Z,6.17
2018-10-11T12:56:07.322Z,5.70
2018-10-11T13:00:47.292Z,9.68
2018-10-11T13:05:27.042Z,5.58
2018-10-11T13:10:06.829Z,5.45
2018-10-11T13:14:46.828Z,5.00
2018-10-11T13:19:26.904Z,5.03
2018-10-11T13:24:06.916Z,5.58
2018-10-11T13:28:46.768Z,5.40
2018-10-11T13:33:26.907Z,5.17
2018-10-11T13:38:06.902Z,5.10
2018-10-11T13:42:46.704Z,6.08
2018-10-11T13:47:26.396Z,5.58
2018-10-11T13:52:06.178Z,5.53
2018-10-11T13:56:52.268Z,6.67
2018-10-11T14:01:26.216Z,5.60
2018-10-11T14:06:06.017Z,5.80
2018-10-11T14:10:46.038Z,5.15
2018-10-11T14:15:25.905Z,6.40
2018-10-11T14:20:05.924Z,6.08
2018-10-11T14:24:45.884Z,6.37
2018-10-11T14:29:25.881Z,6.10
2018-10-11T14:34:05.837Z,7.12
2018-10-11T14:38:46.152Z,5.05
2018-10-11T14:43:26.139Z,4.85
2018-10-11T14:48:06.169Z,4.67
2018-10-11T14:52:46.072Z,5.08
2018-10-11T14:57:26.141Z,4.62
2018-10-11T15:02:05.817Z,4.60
2018-10-11T15:06:45.644Z,4.95
2018-10-11T15:11:25.656Z,4.35
2018-10-11T15:16:05.640Z,4.83
2018-10-11T15:20:45.578Z,4.45
2018-10-11T15:25:26.015Z,5.10
2018-10-11T15:30:06.938Z,5.53
2018-10-11T15:34:47.148Z,5.17
2018-10-11T15:39:27.712Z,8.63
2018-10-11T15:44:08.141Z,5.62
2018-10-11T15:48:48.104Z,7.17
2018-10-11T15:53:28.912Z,8.10
2018-10-11T15:58:09.613Z,7.95
2018-10-11T16:02:49.525Z,6.28
2018-10-11T16:07:30.099Z,6.78
2018-10-11T16:12:10.029Z,5.97
2018-10-11T16:16:50.137Z,7.03
2018-10-11T16:21:30.276Z,8.38
2018-10-11T16:26:10.412Z,7.53
2018-10-11T16:30:50.269Z,8.98
2018-10-11T16:35:30.262Z,7.03
2018-10-11T16:40:10.174Z,8.65
2018-10-11T16:44:50.245Z,7.72
2018-10-11T16:49:30.139Z,8.95
2018-10-11T16:54:10.005Z,8.88
2018-10-11T16:58:49.920Z,8.63
2018-10-11T17:03:31.203Z,11.68
2018-10-11T17:08:11.070Z,10.68
2018-10-11T17:12:52.419Z,13.68
2018-10-11T17:17:32.347Z,22.22
2018-10-11T17:22:13.361Z,21.73
2018-10-11T17:26:53.756Z,16.17
2018-10-11T17:31:33.564Z,17.90
2018-10-11T17:36:13.439Z,20.00
2018-10-11T17:40:53.272Z,19.12
2018-10-11T17:45:33.185Z,20.90
2018-10-11T17:50:13.117Z,19.87
2018-10-11T17:54:56.909Z,21.50
2018-10-11T17:59:36.840Z,28.17
2018-10-11T18:04:19.131Z,24.37
2018-10-11T18:08:58.945Z,26.48
2018-10-11T18:13:38.840Z,23.75
2018-10-11T18:18:18.913Z,39.05
2018-10-11T18:22:59.512Z,26.27
2018-10-11T18:27:39.387Z,24.37
2018-10-11T18:32:19.305Z,22.37
2018-10-11T18:36:59.100Z,29.90
2018-10-11T18:41:39.140Z,20.88
2018-10-11T18:46:19.049Z,26.40
2018-10-11T18:50:58.936Z,17.37
2018-10-11T18:55:38.757Z,20.23
2018-10-11T19:00:18.592Z,23.25
2018-10-11T19:04:59.218Z,16.55
2018-10-11T19:09:39.409Z,16.87
2018-10-11T19:14:19.218Z,15.20
2018-10-11T19:18:58.968Z,17.77
2018-10-11T19:23:39.026Z,19.35
2018-10-11T19:28:19.196Z,25.00
2018-10-11T19:32:59.056Z,19.17
2018-10-11T19:37:38.853Z,20.97
2018-10-11T19:42:18.784Z,31.15
2018-10-11T19:46:58.596Z,26.73
2018-10-11T19:51:38.456Z,23.55
2018-10-11T19:56:19.371Z,21.68
2018-10-11T20:01:01.793Z,28.47
2018-10-11T20:05:42.458Z,27.40
2018-10-11T20:10:22.528Z,22.10
2018-10-11T20:15:02.859Z,17.42
2018-10-11T20:19:43.177Z,24.02
2018-10-11T20:24:23.312Z,67.58
2018-10-11T20:29:03.992Z,24.50
2018-10-11T20:33:44.269Z,23.47
2018-10-11T20:38:24.050Z,20.57
2018-10-11T20:43:03.953Z,23.60
2018-10-11T20:47:43.809Z,21.50
2018-10-11T20:52:23.512Z,31.23
2018-10-11T20:57:03.416Z,32.10
2018-10-11T21:01:43.324Z,36.95
2018-10-11T21:06:23.100Z,34.83
2018-10-11T21:11:03.151Z,23.52
2018-10-11T21:15:42.947Z,45.15
2018-10-11T21:20:23.026Z,27.05
2018-10-11T21:25:03.156Z,16.80
2018-10-11T21:29:43.049Z,33.50
2018-10-11T21:34:23.124Z,36.40
2018-10-11T21:39:03.925Z,29.20
2018-10-11T21:43:43.837Z,19.62
2018-10-11T21:48:23.578Z,17.52
2018-10-11T21:53:03.714Z,16.60
2018-10-11T21:57:43.496Z,26.37
2018-10-11T22:02:23.417Z,20.43
2018-10-11T22:07:03.162Z,15.83
2018-10-11T22:11:42.928Z,17.62
2018-10-11T22:16:22.840Z,17.25
2018-10-11T22:21:02.744Z,19.27
2018-10-11T22:25:42.494Z,24.60
2018-10-11T22:30:22.792Z,21.23
2018-10-11T22:35:02.591Z,27.32
2018-10-11T22:39:42.457Z,22.27
2018-10-11T22:44:23.589Z,15.18
2018-10-11T22:49:03.507Z,13.95
2018-10-11T22:53:43.428Z,18.07
2018-10-11T22:58:23.420Z,19.60
2018-10-11T23:03:03.305Z,29.30
2018-10-11T23:07:43.221Z,45.83
2018-10-11T23:12:23.437Z,17.07
2018-10-11T23:17:03.484Z,16.40
2018-10-11T23:21:43.372Z,20.57
2018-10-11T23:26:23.220Z,16.35
2018-10-11T23:31:03.113Z,16.95
2018-10-11T23:35:43.067Z,23.65
2018-10-11T23:40:23.048Z,44.95
2018-10-11T23:45:02.966Z,25.37
2018-10-11T23:49:42.728Z,35.75
2018-10-11T23:54:22.687Z,19.85
2018-10-11T23:59:02.496Z,16.60
